Reading, Jamaica
Current Conditions -  °F | °C
As of 4:22 PM on Monday 20 Oct 2014 (Local Time) from MKJS Reporting Station
Light Rain Light Rain  
Wind Chill: 73°   Ceiling: Unl
Heat Index: 73°   Visibility: 6mi
Dew Point: 70°   Wind: 3mph
Humidity: 88%   Direction: 220°SW
Pressure: 29.83"   Gusts: NA
Location:  18.45°N, 77.95°W
Report Text: MKJS 202122Z 22003KT 9999 -RA FEW018 SCT022CB 23/21 Q1010
Loading
Personal Weather Stations






























Interactive Weather Map New forecast layout! Learn more

10-Day Weather Forecast

Advertisements
Track Severe Weather on mobile